Glenrock, WY

10:51 AM MDT on July 25, 2014 (GMT -0600)
Natrona County International (KCPR) Elev 5289 ft | 42.90 °N, 106.47 °W | Change Station

Current weather conditions updated 58 minutes ago

Clear
Clear
72 °F
Feels Like 72 °F
N
4
Wind Variable Wind from SE

Today is forecast to be Cooler than yesterday.

Today
High -- | Low -- °F
--% Chance of Precip.
Yesterday
High -- | Low -- °F
Precip. -- in
5:47 AM 8:31 PM
Waning Crescent, 1% visible
Pressure 29.85 in
Visibility 10.0 miles
Clouds Clear
Dew Point 51 °F
Humidity 48%
Rainfall 0.00 in
Snow Depth Not available.
UV 6 out of 12
Pollen 7.60 out of 12
Air Quality Not available.
Flu Activity Not available.
METAR KCPR 251553Z 14003KT 10SM CLR 22/11 A3007 RMK AO2 SLP107 T02220106

More Conditions Fewer Conditions

Pressure 29.85 in
Visibility 10.0 miles
Clouds Clear
Dew Point 51 °F
Humidity 48%
Rainfall 0.00 in
Snow Depth Not available.
UV 6 out of 12
Pollen 7.60 out of 12
Air Quality Not available.
Flu Activity Not available.
METAR KCPR 251553Z 14003KT 10SM CLR 22/11 A3007 RMK AO2 SLP107 T02220106

More Conditions Fewer Conditions

10-Day Weather Forecast

Almanac

Astronomy

Jul. 25, 2014 Rise Set
Actual Time 5:47 AM MDT 8:31 PM MDT
Civil Twilight 5:14 AM MDT 9:03 PM MDT
Nautical Twilight 4:33 AM MDT 9:45 PM MDT
Astronomical Twilight 3:45 AM MDT 10:32 PM MDT
Moon 4:50 AM MDT 7:28 PM MDT
Length of Visible Light 15h 49m
Length of Day
14h 43m
Tomorrow will be 1m 59s shorter.
Waning Crescent, 1% of the Moon is Illuminated
Today
Waning Crescent
Jul 26
New
Aug 3
First Quarter
Aug 10
Full
Aug 17
Last Quarter

Today's Extremes

State Highs State Lows

Community

WunderPhotos

Upload Photos

1,737,363 photos uploaded!

WunderBlogs® & News

Nearby

Snow Depth

Station Depth Elevation
Reno Hill 0 in 8500 ft
Casper Mountain 0 in 7850 ft
Windy Peak 0 in 7900 ft
Grave Springs 0 in 8550 ft
Middle Powder 0 in 7760 ft

Earthquake Activity

City Distance Mag. Time & Date
No recent earthquake activity has been reported nearby.
Minimum magnitude displayed is 2.5.

Coastal Water Temperatures

Place Temperature
No Stations Reporting

Nearby Weather Stations

Station Location Temp. Heat Index Dew Point Humidity Wind Precip. Elev Updated Type
HADS NORTH PLATTE RIVER NEAR GLEN ROC WY, Glenrock, WY 69 °F - - - North  at  - 0.00 in / hr 4948 ft 9:30 AM MDT MADIS
North of Rolling Hills WY, Glenrock, WY 77.6 °F 78 °F 45 °F 32% ESE  at  5.0 mph 0.00 in / hr 5421 ft 10:51 AM MDT Rapid Fire
Douglas, Douglas, WY 81.0 °F 80 °F 51 °F 35% NE  at  0.0 mph 0.00 in / hr 6096 ft 10:51 AM MDT Rapid Fire
Converse County Flyers, Douglas, WY 83.8 °F 84 °F 64 °F 44% SE  at  7.6 mph 0.00 in / hr 4839 ft 10:50 AM MDT Normal

Show More Stations Show Fewer Stations